Flight Track Log - Related Links

Times and Time Zones

All times are in EDT time to prevent confusion due to time zone crossing. See the N5436U flight status page for this flight to view local times or setup timezone preferences in your user account.

Time Position Orientation Groundspeed Altitude Reporting Facility
EDT Latitude Longitude Course Direction KTS MPH feet Rate Location/Type
Sun 02:56:00 PM 32.3488 -80.9476 301° West  Level FlightAware Approximate
Sun 02:57:00 PM 32.3814 -80.9814 320° Northwest  Level FlightAware Approximate
Sun 02:58:00 PM 32.4045 -81.0247 304° West  Level FlightAware Approximate
Sun 02:59:00 PM 32.4286 -81.0674 304° West  Level FlightAware Approximate
Sun 03:00:00 PM 32.4526 -81.1102 304° West  Level FlightAware Approximate
Sun 03:00:46 PM 32.4686 -81.0631 304° West 131 151 6,600  Level Jacksonville Center
Sun 03:01:00 PM 32.4766 -81.1530 304° West  Level FlightAware Approximate
Sun 03:01:46 PM 32.4900 -81.0994 305° West 131 151 7,000  Level Jacksonville Center
Sun 03:02:00 PM 32.5006 -81.1958 304° West  Level FlightAware Approximate
Sun 03:02:46 PM 32.5092 -81.1311 306° West 140 161 7,400  Level Jacksonville Center
Sun 03:03:00 PM 32.5246 -81.2386 304° West  Level FlightAware Approximate
Sun 03:03:46 PM 32.5306 -81.1653 307° West 129 148 7,900  Level Jacksonville Center
Sun 03:04:00 PM 32.5486 -81.2815 304° West  Level FlightAware Approximate
Sun 03:04:46 PM 32.5519 -81.1969 309° West 129 148 8,100  Level Jacksonville Center
Sun 03:05:00 PM 32.5726 -81.3244 304° West  Level FlightAware Approximate
Sun 03:05:46 PM 32.5797 -81.2433 305° West 146 168 8,100  Level Jacksonville Center
Sun 03:06:00 PM 32.5965 -81.3673 304° West  Level FlightAware Approximate
Sun 03:06:46 PM 32.6053 -81.2847 306° West 151 174 8,500  Level Jacksonville Center
Sun 03:07:46 PM 32.6286 -81.3164 311° West 139 160 9,000 450 Climbing Jacksonville Center
Sun 03:08:46 PM 32.6478 -81.3481 306° West 139 160 9,400 350 Climbing Jacksonville Center
Sun 03:09:46 PM 32.6692 -81.3847 305° West 139 160 9,700 350 Climbing Jacksonville Center
Sun 03:10:46 PM 32.6903 -81.4264 301° West 139 160 10,100 250 Climbing Jacksonville Center
Sun 03:11:46 PM 32.7014 -81.4781 284° West 139 160 10,200 50 Climbing Jacksonville Center
Sun 03:12:46 PM 32.7125 -81.5272 285° West 151 174 10,200  Level Jacksonville Center
Sun 03:13:46 PM 32.7378 -81.5689 306° West 151 174 10,200  Level Jacksonville Center
Sun 03:14:46 PM 32.7656 -81.6128 307° West 156 180 10,200  Level Jacksonville Center
Sun 03:15:46 PM 32.7889 -81.6569 302° West 166 191 10,200 -3 Level Jacksonville Center
Sun 03:17:00 PM 32.8213 -81.7026 310° West  Level FlightAware Approximate
Sun 03:24:00 PM 32.9733 -81.9879 302° West  Level FlightAware Approximate
Sun 03:25:00 PM 33.0139 -81.9918 355° North  Level FlightAware Approximate
Sun 03:26:00 PM 33.0546 -81.9957 355° North  Level FlightAware Approximate
Sun 03:27:00 PM 33.0750 -82.0379 299° West  Level Estimated
Sun 03:28:00 PM 33.0959 -82.0797 301° West  Level FlightAware Approximate
Sun 03:29:00 PM 33.1168 -82.1216 301° West  Level FlightAware Approximate
Sun 03:30:00 PM 33.1377 -82.1634 301° West  Level FlightAware Approximate
Sun 03:31:00 PM 33.1586 -82.2053 301° West  Level FlightAware Approximate
Sun 03:32:00 PM 33.1795 -82.2472 301° West  Level FlightAware Approximate
Sun 03:33:00 PM 33.2003 -82.2891 301° West  Level FlightAware Approximate
Sun 03:34:00 PM 33.2212 -82.3310 301° West  Level FlightAware Approximate
Sun 03:35:00 PM 33.2420 -82.3729 301° West  Level FlightAware Approximate
Sun 03:36:00 PM 33.2628 -82.4149 301° West  Level FlightAware Approximate
Sun 03:37:00 PM 33.2836 -82.4569 301° West  Level FlightAware Approximate
Sun 03:38:00 PM 33.3044 -82.4989 301° West  Level FlightAware Approximate
Sun 03:39:00 PM 33.3252 -82.5410 301° West  Level FlightAware Approximate
Sun 03:40:00 PM 33.3459 -82.5830 301° West  Level FlightAware Approximate
Sun 03:41:00 PM 33.3667 -82.6251 301° West  Level FlightAware Approximate
Sun 03:42:00 PM 33.3874 -82.6672 301° West  Level FlightAware Approximate
Sun 03:43:00 PM 33.4081 -82.7093 301° West  Level FlightAware Approximate
Sun 03:44:00 PM 33.4288 -82.7515 300° West  Level FlightAware Approximate
Sun 03:45:00 PM 33.4495 -82.7936 300° West  Level FlightAware Approximate
Sun 03:46:00 PM 33.4702 -82.8358 300° West  Level FlightAware Approximate
Sun 03:46:57 PM 33.5167 -83.0333 302° West 157 181 10,100  Level Atlanta TRACON
Sun 03:47:00 PM 33.4908 -82.8780 300° West  Level FlightAware Approximate
Sun 03:47:57 PM 33.5333 -83.0833 292° West 153 176 10,100  Level Atlanta TRACON
Sun 03:48:00 PM 33.5115 -82.9202 300° West  Level FlightAware Approximate
Sun 03:48:57 PM 33.5500 -83.1167 301° West 154 177 10,100  Level Atlanta TRACON
Sun 03:49:00 PM 33.5321 -82.9624 300° West  Level FlightAware Approximate
Sun 03:49:51 PM 33.5833 -83.1667 309° West 154 177 10,100  Level Atlanta TRACON
Sun 03:50:00 PM 33.5527 -83.0047 300° West  Level FlightAware Approximate
Sun 03:50:57 PM 33.6000 -83.2000 301° West 155 178 10,100  Level Atlanta TRACON
Sun 03:51:00 PM 33.5721 -83.0478 301° West  Level Estimated
Sun 03:51:57 PM 33.6167 -83.2500 292° West 170 196 9,600  Level Atlanta TRACON
Sun 03:52:00 PM 33.5936 -83.0894 302° West  Level FlightAware Approximate
Sun 03:52:57 PM 33.6500 -83.3000 309° West 173 199 9,000  Level Atlanta TRACON
Sun 03:53:57 PM 33.6667 -83.3500 292° West 172 198 8,400 -550 Descending Atlanta TRACON
Sun 03:54:57 PM 33.7000 -83.4000 309° West 169 194 7,900 -550 Descending Atlanta TRACON
Sun 03:55:57 PM 33.7167 -83.4500 292° West 168 193 7,300 -550 Descending Atlanta TRACON
Sun 03:56:57 PM 33.7500 -83.5000 309° West 167 192 6,800 -450 Descending Atlanta TRACON
Sun 03:57:57 PM 33.7667 -83.5500 292° West 162 186 6,400 -350 Descending Atlanta TRACON
Sun 03:58:57 PM 33.8000 -83.5833 320° Northwest 163 188 6,100 -300 Descending Atlanta TRACON
Sun 03:59:57 PM 33.8167 -83.6333 292° West 162 186 5,800 -350 Descending Atlanta TRACON
Sun 04:00:57 PM 33.8333 -83.6833 292° West 159 183 5,400 -316 Descending Atlanta TRACON
Sun 04:01:51 PM 33.8667 -83.7333 309° West 166 191 5,200 -316 Descending Atlanta TRACON
Sun 04:02:51 PM 33.8833 -83.7833 292° West 168 193 4,800 -500 Descending Atlanta TRACON
Sun 04:03:51 PM 33.9000 -83.8167 301° West 170 196 4,200 -550 Descending Atlanta TRACON
Sun 04:04:51 PM 33.9333 -83.8667 309° West 167 192 3,700 -524 Descending Atlanta TRACON
Sun 04:05:57 PM 33.9167 -83.9333 253° West 161 185 3,100 -429 Descending Atlanta TRACON
Sun 04:06:57 PM 33.9333 -83.9500 320° Northwest 156 180 2,800 -350 Descending Atlanta TRACON
Sun 04:07:57 PM 33.9667 -83.9167 40° Northeast 132 152 2,400 -446 Descending Atlanta TRACON
Sun 04:08:58 PM 33.9833 -83.9167 360° North 115 132 1,900 -492 Descending Atlanta TRACON

Login

Don't have an account? Register now (free) for customized features, flight alerts, and more!